Aérodrome :
LOGIN :

S'inscrire | Disclaimer

   EN    FR    IT 

 










Légende :    VFR   VFR Marginal   IFR   IFR Intensif   IFR Très Intensif
Visi : 
Plafond : 
>= 8 km
>= 3000ft
5 à 8 km
1000 à 3000 ft
1500m à 5 km
500 à 1000 ft
800 à 1500m
200 à 500 ft
< 800m
< 200 ft
Symboles :   Orages  Brouillard  Fortes neiges  Fortes précipitations  Vent > 20 kt
SIGMETs :   Divers  Orages  Givrage  Turbulence  Onde Orograph.  Cendres Volcan.







- Altitude de l'aérodrome : 299 ft
- Code IATA : EDM
- Voir les cartes d'approche


LFRI - La Roche Sur Yon - Les Ajoncs

DERNIER METAR :
  • 181100Z AUTO /////KT 9999 OVC010 18/15 Q1011

METARs EXPIRÉS :
  • 181030Z AUTO 15010KT 9999 OVC008 18/15 Q1011
  • 181000Z AUTO 14007KT 9999 BKN006 OVC080 17/16 Q1011
  • 180930Z AUTO 14006KT 9999 BKN006 BKN078 16/15 Q1011
  • 180900Z AUTO /////KT 9999 BKN006 OVC100 17/15 Q1011
  • 180830Z AUTO 14005KT 100V160 9999 -RA FEW006 OVC088 15/14 Q1011
  • 180800Z AUTO 14007KT 110V170 9999 FEW010 BKN076 OVC090 15/14 Q1011

TAF AMD TAF LFRI
Valide du 18 à 10h jusqu'au 19 à 06h UTC


181017Z 1810/1906 16005KT 9999 SCT014 BKN030
TEMPO 1810/1812 4000 -RA BKN006 BKN030
TEMPO 1822/1906 4000 SHRA BKN012
PROB30
TEMPO 1900/1906 BKN004
Pas de NOTAMs connus pour ce terrain.
3 SIGMETs publiés pour la FIR Brest (LFRR) :
 
Orages noyés dans la masse
LFRR SIGMET 4 VALID 181050/181250 LFPW
LFRR BREST FIR/UIR EMBD TS OBS AT 1050Z WI N4415 W00400 - N4515 W00600 - N4615 W00515 - N4530 W00300 TOP FL360 STNR NC=
Turbulence forte
LFRR SIGMET 3 VALID 181000/181400 LFPW
LFRR BREST FIR/UIR SEV TURB FCST W OF LINE N4430 W00545 - N4915 W00700 FL220/350 MOV E 10KT NC=
Annulation du SIGMET 1 
LFRR SIGMET 2 VALID 180920/181045 LFPW
LFRR BREST FIR/UIR CNL SIGMET 1 180845/181045=



MET'MAP, la Météo Aéronautique d'un coup d'oeil ! - Copyright ORBIFLY Décembre 2007 - Disclaimer

ORBIFLY MET'MAP TEAM :

Programmation & Développement : Alexandra Zaïnal
Conception & Développement : Baudouin d'Aumeries
Co-Programmation & Développement : Marc-Olivier Méhu
Soutien technique & logistique : Manuel Goepfert

Contact : metmap@orbifly.com




SOURCES & CREDITS :

   NOAA